sensor_id;sensor_type;location;lat;lon;timestamp;pressure;altitude;pressure_sealevel;temperature;humidity
82562;BME280;72228;51.208;10.468;2024-02-23T00:01:44;96270.44;;;8.87;60.52
82562;BME280;72228;51.208;10.468;2024-02-23T00:04:10;96277.84;;;8.83;60.20
82562;BME280;72228;51.208;10.468;2024-02-23T00:06:36;96276.06;;;8.68;60.22
82562;BME280;72228;51.208;10.468;2024-02-23T00:09:02;96272.91;;;8.69;60.16
82562;BME280;72228;51.208;10.468;2024-02-23T00:11:28;96298.09;;;8.64;60.31
82562;BME280;72228;51.208;10.468;2024-02-23T00:13:54;96303.50;;;8.57;61.11
82562;BME280;72228;51.208;10.468;2024-02-23T00:16:20;96308.16;;;8.53;61.39
82562;BME280;72228;51.208;10.468;2024-02-23T00:18:46;96298.97;;;8.45;61.06
82562;BME280;72228;51.208;10.468;2024-02-23T00:21:12;96312.00;;;8.48;61.59
82562;BME280;72228;51.208;10.468;2024-02-23T00:23:38;96325.28;;;8.39;62.27
82562;BME280;72228;51.208;10.468;2024-02-23T00:26:04;96331.44;;;8.32;62.99
82562;BME280;72228;51.208;10.468;2024-02-23T00:28:30;96325.84;;;8.29;63.79
82562;BME280;72228;51.208;10.468;2024-02-23T00:30:56;96348.69;;;8.26;64.14
82562;BME280;72228;51.208;10.468;2024-02-23T00:33:21;96337.63;;;8.26;63.76
82562;BME280;72228;51.208;10.468;2024-02-23T00:35:47;96352.81;;;8.16;64.56
82562;BME280;72228;51.208;10.468;2024-02-23T00:38:13;96349.81;;;8.02;65.94
82562;BME280;72228;51.208;10.468;2024-02-23T00:40:39;96362.50;;;7.87;66.72
82562;BME280;72228;51.208;10.468;2024-02-23T00:43:05;96358.09;;;7.83;66.45
82562;BME280;72228;51.208;10.468;2024-02-23T00:45:31;96367.59;;;7.85;65.82
82562;BME280;72228;51.208;10.468;2024-02-23T00:47:57;96368.91;;;7.91;65.32
82562;BME280;72228;51.208;10.468;2024-02-23T00:50:23;96396.63;;;7.79;66.10
82562;BME280;72228;51.208;10.468;2024-02-23T00:52:52;96395.31;;;7.92;61.82
82562;BME280;72228;51.208;10.468;2024-02-23T00:55:19;96398.31;;;7.84;62.82
82562;BME280;72228;51.208;10.468;2024-02-23T00:58:03;96403.22;;;7.94;61.98
82562;BME280;72228;51.208;10.468;2024-02-23T01:00:29;96411.88;;;7.92;60.29
82562;BME280;72228;51.208;10.468;2024-02-23T01:02:56;96407.09;;;7.89;60.46
82562;BME280;72228;51.208;10.468;2024-02-23T01:05:24;96417.38;;;7.92;60.24
82562;BME280;72228;51.208;10.468;2024-02-23T01:07:51;96419.06;;;7.97;59.66
82562;BME280;72228;51.208;10.468;2024-02-23T01:10:17;96426.09;;;7.94;59.98
82562;BME280;72228;51.208;10.468;2024-02-23T01:12:43;96452.03;;;7.90;60.86
82562;BME280;72228;51.208;10.468;2024-02-23T01:15:09;96475.16;;;7.85;61.52
82562;BME280;72228;51.208;10.468;2024-02-23T01:17:35;96481.13;;;7.87;61.45
82562;BME280;72228;51.208;10.468;2024-02-23T01:20:01;96490.13;;;7.84;62.70
82562;BME280;72228;51.208;10.468;2024-02-23T01:22:27;96486.88;;;7.63;65.55
82562;BME280;72228;51.208;10.468;2024-02-23T01:24:53;96530.50;;;7.41;67.48
82562;BME280;72228;51.208;10.468;2024-02-23T01:27:19;96522.56;;;7.08;71.74
82562;BME280;72228;51.208;10.468;2024-02-23T01:29:45;96548.81;;;6.74;74.54
82562;BME280;72228;51.208;10.468;2024-02-23T01:32:10;96540.88;;;6.57;74.82
82562;BME280;72228;51.208;10.468;2024-02-23T01:34:36;96538.91;;;6.57;73.82
82562;BME280;72228;51.208;10.468;2024-02-23T01:37:02;96543.63;;;6.57;74.13
82562;BME280;72228;51.208;10.468;2024-02-23T01:39:28;96546.88;;;6.47;74.80
82562;BME280;72228;51.208;10.468;2024-02-23T01:41:54;96549.63;;;6.47;74.90
82562;BME280;72228;51.208;10.468;2024-02-23T01:44:20;96552.16;;;6.39;73.98
82562;BME280;72228;51.208;10.468;2024-02-23T01:46:47;96554.69;;;6.44;74.37
82562;BME280;72228;51.208;10.468;2024-02-23T01:49:13;96565.94;;;6.39;73.78
82562;BME280;72228;51.208;10.468;2024-02-23T01:51:39;96573.59;;;6.46;73.08
82562;BME280;72228;51.208;10.468;2024-02-23T01:54:06;96587.44;;;6.62;71.64
82562;BME280;72228;51.208;10.468;2024-02-23T01:56:32;96611.72;;;6.60;72.61
82562;BME280;72228;51.208;10.468;2024-02-23T01:58:59;96593.97;;;6.57;72.07
82562;BME280;72228;51.208;10.468;2024-02-23T02:01:30;96599.88;;;6.43;73.00
82562;BME280;72228;51.208;10.468;2024-02-23T02:03:56;96598.25;;;6.42;71.33
82562;BME280;72228;51.208;10.468;2024-02-23T02:06:23;96600.91;;;6.39;71.57
82562;BME280;72228;51.208;10.468;2024-02-23T02:08:49;96623.38;;;6.41;71.85
82562;BME280;72228;51.208;10.468;2024-02-23T02:11:15;96620.03;;;6.48;70.02
82562;BME280;72228;51.208;10.468;2024-02-23T02:13:41;96626.25;;;6.44;70.38
82562;BME280;72228;51.208;10.468;2024-02-23T02:16:07;96619.13;;;6.43;70.31
82562;BME280;72228;51.208;10.468;2024-02-23T02:18:33;96635.53;;;6.40;70.43
82562;BME280;72228;51.208;10.468;2024-02-23T02:20:59;96644.13;;;6.38;70.82
82562;BME280;72228;51.208;10.468;2024-02-23T02:23:25;96634.28;;;6.37;70.22
82562;BME280;72228;51.208;10.468;2024-02-23T02:25:57;96648.72;;;6.34;70.52
82562;BME280;72228;51.208;10.468;2024-02-23T02:28:24;96646.00;;;6.22;70.93
82562;BME280;72228;51.208;10.468;2024-02-23T02:30:51;96638.09;;;6.21;70.67
82562;BME280;72228;51.208;10.468;2024-02-23T02:33:18;96652.06;;;6.15;70.71
82562;BME280;72228;51.208;10.468;2024-02-23T02:35:44;96652.31;;;5.98;71.69
82562;BME280;72228;51.208;10.468;2024-02-23T02:38:11;96661.59;;;5.94;71.36
82562;BME280;72228;51.208;10.468;2024-02-23T02:40:37;96674.72;;;5.88;72.35
82562;BME280;72228;51.208;10.468;2024-02-23T02:43:03;96661.81;;;5.88;71.87
82562;BME280;72228;51.208;10.468;2024-02-23T02:45:29;96687.66;;;5.75;72.77
82562;BME280;72228;51.208;10.468;2024-02-23T02:47:55;96692.50;;;5.78;72.22
82562;BME280;72228;51.208;10.468;2024-02-23T02:50:22;96688.47;;;5.88;70.72
82562;BME280;72228;51.208;10.468;2024-02-23T02:52:47;96698.00;;;5.78;70.93
82562;BME280;72228;51.208;10.468;2024-02-23T02:55:13;96697.88;;;5.87;71.16
82562;BME280;72228;51.208;10.468;2024-02-23T02:57:39;96706.47;;;5.85;70.44
82562;BME280;72228;51.208;10.468;2024-02-23T03:00:05;96699.03;;;5.86;70.51
82562;BME280;72228;51.208;10.468;2024-02-23T03:02:35;96687.78;;;5.79;69.98
82562;BME280;72228;51.208;10.468;2024-02-23T03:05:01;96692.00;;;5.76;70.26
82562;BME280;72228;51.208;10.468;2024-02-23T03:07:27;96705.75;;;5.76;70.34
82562;BME280;72228;51.208;10.468;2024-02-23T03:09:53;96713.19;;;5.63;71.76
82562;BME280;72228;51.208;10.468;2024-02-23T03:12:19;96713.09;;;5.60;71.68
82562;BME280;72228;51.208;10.468;2024-02-23T03:14:45;96732.28;;;5.48;72.54
82562;BME280;72228;51.208;10.468;2024-02-23T03:17:11;96718.41;;;5.44;72.05
82562;BME280;72228;51.208;10.468;2024-02-23T03:19:38;96719.56;;;5.43;72.19
82562;BME280;72228;51.208;10.468;2024-02-23T03:22:04;96729.88;;;5.46;71.84
82562;BME280;72228;51.208;10.468;2024-02-23T03:24:30;96737.75;;;5.35;72.85
82562;BME280;72228;51.208;10.468;2024-02-23T03:26:57;96744.38;;;5.34;72.53
82562;BME280;72228;51.208;10.468;2024-02-23T03:29:23;96748.25;;;5.33;72.48
82562;BME280;72228;51.208;10.468;2024-02-23T03:31:52;96749.19;;;5.37;71.53
82562;BME280;72228;51.208;10.468;2024-02-23T03:34:19;96746.00;;;5.35;70.67
82562;BME280;72228;51.208;10.468;2024-02-23T03:36:45;96747.59;;;5.36;70.24
82562;BME280;72228;51.208;10.468;2024-02-23T03:39:11;96757.63;;;5.32;70.18
82562;BME280;72228;51.208;10.468;2024-02-23T03:41:36;96762.41;;;5.23;70.36
82562;BME280;72228;51.208;10.468;2024-02-23T03:44:02;96764.56;;;5.18;70.24
82562;BME280;72228;51.208;10.468;2024-02-23T03:46:28;96771.06;;;5.13;70.76
82562;BME280;72228;51.208;10.468;2024-02-23T03:48:54;96775.59;;;5.09;70.91
82562;BME280;72228;51.208;10.468;2024-02-23T03:51:20;96780.38;;;5.00;71.99
82562;BME280;72228;51.208;10.468;2024-02-23T03:53:45;96786.75;;;4.92;72.96
82562;BME280;72228;51.208;10.468;2024-02-23T03:56:12;96797.72;;;4.92;72.80
82562;BME280;72228;51.208;10.468;2024-02-23T03:58:38;96797.44;;;4.84;73.69
82562;BME280;72228;51.208;10.468;2024-02-23T04:01:04;96802.94;;;4.84;73.09
82562;BME280;72228;51.208;10.468;2024-02-23T04:03:30;96814.41;;;4.87;72.71
82562;BME280;72228;51.208;10.468;2024-02-23T04:05:56;96816.19;;;4.82;73.22
82562;BME280;72228;51.208;10.468;2024-02-23T04:08:22;96816.66;;;4.84;73.70
82562;BME280;72228;51.208;10.468;2024-02-23T04:10:47;96832.81;;;4.86;73.57
82562;BME280;72228;51.208;10.468;2024-02-23T04:13:13;96837.88;;;4.75;73.43
82562;BME280;72228;51.208;10.468;2024-02-23T04:15:40;96839.81;;;4.75;73.88
82562;BME280;72228;51.208;10.468;2024-02-23T04:18:06;96848.25;;;4.70;73.98
82562;BME280;72228;51.208;10.468;2024-02-23T04:20:32;96846.97;;;4.67;74.58
82562;BME280;72228;51.208;10.468;2024-02-23T04:22:58;96859.88;;;4.67;74.48
82562;BME280;72228;51.208;10.468;2024-02-23T04:25:24;96861.16;;;4.69;73.94
82562;BME280;72228;51.208;10.468;2024-02-23T04:27:50;96860.72;;;4.58;74.22
82562;BME280;72228;51.208;10.468;2024-02-23T04:30:16;96864.97;;;4.47;75.14
82562;BME280;72228;51.208;10.468;2024-02-23T04:32:41;96873.88;;;4.44;75.18
82562;BME280;72228;51.208;10.468;2024-02-23T04:35:08;96865.00;;;4.39;75.65
82562;BME280;72228;51.208;10.468;2024-02-23T04:37:34;96871.44;;;4.43;74.98
82562;BME280;72228;51.208;10.468;2024-02-23T04:39:59;96880.66;;;4.38;75.20
82562;BME280;72228;51.208;10.468;2024-02-23T04:42:25;96882.50;;;4.25;75.59
82562;BME280;72228;51.208;10.468;2024-02-23T04:44:51;96892.81;;;4.20;75.66
82562;BME280;72228;51.208;10.468;2024-02-23T04:47:20;96893.34;;;4.13;75.54
82562;BME280;72228;51.208;10.468;2024-02-23T04:49:46;96885.28;;;4.08;76.34
82562;BME280;72228;51.208;10.468;2024-02-23T04:52:12;96887.69;;;4.10;77.03
82562;BME280;72228;51.208;10.468;2024-02-23T04:54:38;96892.06;;;4.02;77.34
82562;BME280;72228;51.208;10.468;2024-02-23T04:57:04;96892.41;;;4.00;77.29
82562;BME280;72228;51.208;10.468;2024-02-23T04:59:30;96899.66;;;3.96;77.65
82562;BME280;72228;51.208;10.468;2024-02-23T05:01:58;96909.66;;;3.92;77.90
82562;BME280;72228;51.208;10.468;2024-02-23T05:04:24;96910.75;;;4.00;77.81
82562;BME280;72228;51.208;10.468;2024-02-23T05:06:52;96911.72;;;4.04;77.46
82562;BME280;72228;51.208;10.468;2024-02-23T05:09:18;96917.03;;;4.09;77.14
82562;BME280;72228;51.208;10.468;2024-02-23T05:11:44;96915.88;;;4.27;76.29
82562;BME280;72228;51.208;10.468;2024-02-23T05:14:11;96913.91;;;4.37;74.82
82562;BME280;72228;51.208;10.468;2024-02-23T05:16:37;96923.56;;;4.43;74.33
82562;BME280;72228;51.208;10.468;2024-02-23T05:19:03;96931.78;;;4.51;73.80
82562;BME280;72228;51.208;10.468;2024-02-23T05:21:29;96932.56;;;4.52;73.44
82562;BME280;72228;51.208;10.468;2024-02-23T05:23:55;96937.09;;;4.56;73.41
82562;BME280;72228;51.208;10.468;2024-02-23T05:26:20;96941.44;;;4.57;73.50
82562;BME280;72228;51.208;10.468;2024-02-23T05:28:46;96952.59;;;4.61;72.44
82562;BME280;72228;51.208;10.468;2024-02-23T05:31:12;96943.69;;;4.64;72.62
82562;BME280;72228;51.208;10.468;2024-02-23T05:33:38;96934.31;;;4.65;72.92
82562;BME280;72228;51.208;10.468;2024-02-23T05:36:04;96926.75;;;4.62;73.18
82562;BME280;72228;51.208;10.468;2024-02-23T05:38:30;96930.13;;;4.59;72.82
82562;BME280;72228;51.208;10.468;2024-02-23T05:40:56;96932.91;;;4.50;73.26
82562;BME280;72228;51.208;10.468;2024-02-23T05:43:22;96926.78;;;4.45;73.47
82562;BME280;72228;51.208;10.468;2024-02-23T05:45:48;96933.88;;;4.46;73.92
82562;BME280;72228;51.208;10.468;2024-02-23T05:48:15;96937.94;;;4.40;73.51
82562;BME280;72228;51.208;10.468;2024-02-23T05:50:41;96936.97;;;4.36;74.32
82562;BME280;72228;51.208;10.468;2024-02-23T05:53:06;96940.06;;;4.34;74.14
82562;BME280;72228;51.208;10.468;2024-02-23T05:55:33;96956.84;;;4.33;73.67
82562;BME280;72228;51.208;10.468;2024-02-23T05:57:59;96964.44;;;4.27;73.56
82562;BME280;72228;51.208;10.468;2024-02-23T06:00:25;96956.34;;;4.30;73.00
82562;BME280;72228;51.208;10.468;2024-02-23T06:02:51;96949.75;;;4.32;73.05
82562;BME280;72228;51.208;10.468;2024-02-23T06:05:16;96966.38;;;4.26;72.96
82562;BME280;72228;51.208;10.468;2024-02-23T06:07:42;96959.28;;;4.25;72.72
82562;BME280;72228;51.208;10.468;2024-02-23T06:10:08;96960.25;;;4.21;72.64
82562;BME280;72228;51.208;10.468;2024-02-23T06:12:34;96962.34;;;4.15;72.80
82562;BME280;72228;51.208;10.468;2024-02-23T06:15:00;96949.47;;;4.07;73.37
82562;BME280;72228;51.208;10.468;2024-02-23T06:17:26;96940.44;;;4.07;72.91
82562;BME280;72228;51.208;10.468;2024-02-23T06:19:53;96944.00;;;4.07;72.37
82562;BME280;72228;51.208;10.468;2024-02-23T06:22:19;96943.78;;;4.12;71.88
82562;BME280;72228;51.208;10.468;2024-02-23T06:24:47;96930.91;;;4.13;71.07
82562;BME280;72228;51.208;10.468;2024-02-23T06:27:13;96942.69;;;4.13;70.92
82562;BME280;72228;51.208;10.468;2024-02-23T06:29:39;96944.00;;;4.07;71.67
82562;BME280;72228;51.208;10.468;2024-02-23T06:32:05;96941.88;;;4.13;71.62
82562;BME280;72228;51.208;10.468;2024-02-23T06:34:31;96953.66;;;4.13;71.63
82562;BME280;72228;51.208;10.468;2024-02-23T06:36:57;96969.94;;;4.10;71.68
82562;BME280;72228;51.208;10.468;2024-02-23T06:39:23;96973.66;;;4.05;71.54
82562;BME280;72228;51.208;10.468;2024-02-23T06:41:49;96981.56;;;3.98;72.09
82562;BME280;72228;51.208;10.468;2024-02-23T06:44:15;96987.19;;;3.93;72.94
82562;BME280;72228;51.208;10.468;2024-02-23T06:46:41;97005.75;;;3.96;72.32
82562;BME280;72228;51.208;10.468;2024-02-23T06:49:07;97012.38;;;3.95;72.57
82562;BME280;72228;51.208;10.468;2024-02-23T06:51:34;97011.56;;;4.03;72.20
82562;BME280;72228;51.208;10.468;2024-02-23T06:54:00;97012.03;;;4.05;72.25
82562;BME280;72228;51.208;10.468;2024-02-23T06:56:26;97018.81;;;4.16;71.38
82562;BME280;72228;51.208;10.468;2024-02-23T06:58:52;97013.63;;;4.23;72.04
82562;BME280;72228;51.208;10.468;2024-02-23T07:01:20;97013.34;;;4.25;71.57
82562;BME280;72228;51.208;10.468;2024-02-23T07:03:46;97030.91;;;4.24;71.26
82562;BME280;72228;51.208;10.468;2024-02-23T07:06:12;97039.94;;;4.24;71.55
82562;BME280;72228;51.208;10.468;2024-02-23T07:08:38;97045.75;;;4.32;72.28
82562;BME280;72228;51.208;10.468;2024-02-23T07:11:03;97054.47;;;4.34;72.13
82562;BME280;72228;51.208;10.468;2024-02-23T07:13:29;97072.38;;;4.40;71.50
82562;BME280;72228;51.208;10.468;2024-02-23T07:15:55;97069.59;;;4.48;70.09
82562;BME280;72228;51.208;10.468;2024-02-23T07:18:22;97078.47;;;4.54;70.48
82562;BME280;72228;51.208;10.468;2024-02-23T07:20:48;97080.91;;;4.55;70.05
82562;BME280;72228;51.208;10.468;2024-02-23T07:23:13;97084.94;;;4.58;70.85
82562;BME280;72228;51.208;10.468;2024-02-23T07:25:42;97083.94;;;4.71;70.00
82562;BME280;72228;51.208;10.468;2024-02-23T07:28:07;97100.44;;;4.80;69.72
82562;BME280;72228;51.208;10.468;2024-02-23T07:30:33;97103.47;;;4.78;69.63
82562;BME280;72228;51.208;10.468;2024-02-23T07:33:02;97112.34;;;4.84;69.80
82562;BME280;72228;51.208;10.468;2024-02-23T07:35:28;97110.41;;;4.84;70.18
82562;BME280;72228;51.208;10.468;2024-02-23T07:37:55;97108.63;;;4.89;70.39
82562;BME280;72228;51.208;10.468;2024-02-23T07:40:21;97109.78;;;4.88;70.46
82562;BME280;72228;51.208;10.468;2024-02-23T07:42:47;97112.66;;;4.91;70.41
82562;BME280;72228;51.208;10.468;2024-02-23T07:45:13;97113.78;;;4.90;69.76
82562;BME280;72228;51.208;10.468;2024-02-23T07:47:39;97127.84;;;4.89;70.29
82562;BME280;72228;51.208;10.468;2024-02-23T07:50:05;97128.34;;;4.82;70.24
82562;BME280;72228;51.208;10.468;2024-02-23T07:52:31;97123.03;;;4.86;70.70
82562;BME280;72228;51.208;10.468;2024-02-23T07:54:57;97132.38;;;4.84;70.89
82562;BME280;72228;51.208;10.468;2024-02-23T07:57:23;97128.66;;;4.98;70.54
82562;BME280;72228;51.208;10.468;2024-02-23T07:59:50;97125.44;;;5.43;68.33
82562;BME280;72228;51.208;10.468;2024-02-23T08:02:15;97124.84;;;6.05;66.33
82562;BME280;72228;51.208;10.468;2024-02-23T08:04:41;97126.91;;;6.37;65.00
82562;BME280;72228;51.208;10.468;2024-02-23T08:07:08;97125.25;;;6.99;62.62
82562;BME280;72228;51.208;10.468;2024-02-23T08:09:34;97125.97;;;7.78;60.02
82562;BME280;72228;51.208;10.468;2024-02-23T08:12:00;97130.09;;;8.09;58.46
82562;BME280;72228;51.208;10.468;2024-02-23T08:14:26;97127.13;;;8.01;58.18
82562;BME280;72228;51.208;10.468;2024-02-23T08:16:52;97131.47;;;8.02;57.92
82562;BME280;72228;51.208;10.468;2024-02-23T08:19:17;97131.91;;;8.29;56.77
82562;BME280;72228;51.208;10.468;2024-02-23T08:21:43;97131.78;;;8.50;56.81
82562;BME280;72228;51.208;10.468;2024-02-23T08:24:09;97141.13;;;8.45;56.26
82562;BME280;72228;51.208;10.468;2024-02-23T08:26:35;97141.47;;;8.19;57.52
82562;BME280;72228;51.208;10.468;2024-02-23T08:29:03;97133.47;;;6.66;60.38
82562;BME280;72228;51.208;10.468;2024-02-23T08:31:30;97141.66;;;6.75;62.36
82562;BME280;72228;51.208;10.468;2024-02-23T08:33:56;97136.09;;;6.62;62.04
82562;BME280;72228;51.208;10.468;2024-02-23T08:36:22;97128.75;;;6.66;61.17
82562;BME280;72228;51.208;10.468;2024-02-23T08:38:48;97139.72;;;6.33;62.09
82562;BME280;72228;51.208;10.468;2024-02-23T08:41:13;97141.66;;;6.33;62.84
82562;BME280;72228;51.208;10.468;2024-02-23T08:43:40;97148.84;;;6.25;62.30
82562;BME280;72228;51.208;10.468;2024-02-23T08:46:06;97146.47;;;6.15;62.94
82562;BME280;72228;51.208;10.468;2024-02-23T08:48:32;97138.72;;;6.38;61.69
82562;BME280;72228;51.208;10.468;2024-02-23T08:50:58;97134.25;;;6.87;61.30
82562;BME280;72228;51.208;10.468;2024-02-23T08:53:24;97135.88;;;6.88;62.20
82562;BME280;72228;51.208;10.468;2024-02-23T08:55:49;97124.13;;;6.58;61.17
82562;BME280;72228;51.208;10.468;2024-02-23T08:58:15;97129.97;;;6.78;61.25
82562;BME280;72228;51.208;10.468;2024-02-23T09:00:41;97137.50;;;6.48;61.31
82562;BME280;72228;51.208;10.468;2024-02-23T09:03:07;97134.81;;;6.39;62.01
82562;BME280;72228;51.208;10.468;2024-02-23T09:05:33;97126.91;;;6.58;61.97
82562;BME280;72228;51.208;10.468;2024-02-23T09:07:59;97126.84;;;6.79;59.52
82562;BME280;72228;51.208;10.468;2024-02-23T09:10:25;97132.03;;;7.14;60.28
82562;BME280;72228;51.208;10.468;2024-02-23T09:12:51;97124.28;;;7.28;60.03
82562;BME280;72228;51.208;10.468;2024-02-23T09:15:36;97122.28;;;7.86;58.17
82562;BME280;72228;51.208;10.468;2024-02-23T09:18:03;97110.72;;;8.57;56.97
82562;BME280;72228;51.208;10.468;2024-02-23T09:20:29;97119.06;;;7.72;57.94
82562;BME280;72228;51.208;10.468;2024-02-23T09:22:54;97122.16;;;8.72;56.27
82562;BME280;72228;51.208;10.468;2024-02-23T09:25:20;97123.63;;;9.09;54.88
82562;BME280;72228;51.208;10.468;2024-02-23T09:27:46;97121.91;;;9.64;54.33
82562;BME280;72228;51.208;10.468;2024-02-23T09:30:13;97117.88;;;9.46;53.77
82562;BME280;72228;51.208;10.468;2024-02-23T09:32:39;97104.59;;;9.99;52.30
82562;BME280;72228;51.208;10.468;2024-02-23T09:35:05;97113.09;;;9.75;52.53
82562;BME280;72228;51.208;10.468;2024-02-23T09:37:32;97117.16;;;9.18;50.74
82562;BME280;72228;51.208;10.468;2024-02-23T09:39:58;97113.63;;;9.96;50.24
82562;BME280;72228;51.208;10.468;2024-02-23T09:42:25;97108.63;;;9.54;51.74
82562;BME280;72228;51.208;10.468;2024-02-23T09:44:57;97108.97;;;9.68;51.05
82562;BME280;72228;51.208;10.468;2024-02-23T09:47:26;97108.13;;;10.31;49.15
82562;BME280;72228;51.208;10.468;2024-02-23T09:49:53;97110.69;;;9.42;51.04
82562;BME280;72228;51.208;10.468;2024-02-23T09:52:20;97110.56;;;9.38;50.98
82562;BME280;72228;51.208;10.468;2024-02-23T09:54:48;97113.25;;;9.82;50.08
82562;BME280;72228;51.208;10.468;2024-02-23T09:57:15;97121.13;;;9.80;48.85
82562;BME280;72228;51.208;10.468;2024-02-23T09:59:41;97116.13;;;9.70;50.60
82562;BME280;72228;51.208;10.468;2024-02-23T10:02:17;97110.19;;;9.24;50.73
82562;BME280;72228;51.208;10.468;2024-02-23T10:04:44;97111.94;;;9.00;50.61
82562;BME280;72228;51.208;10.468;2024-02-23T10:07:10;97123.06;;;9.04;51.80
82562;BME280;72228;51.208;10.468;2024-02-23T10:09:39;97126.00;;;8.95;53.12
82562;BME280;72228;51.208;10.468;2024-02-23T10:12:06;97113.38;;;8.82;51.80
82562;BME280;72228;51.208;10.468;2024-02-23T10:14:32;97120.59;;;8.99;52.54
82562;BME280;72228;51.208;10.468;2024-02-23T10:16:58;97125.50;;;9.05;51.46
82562;BME280;72228;51.208;10.468;2024-02-23T10:19:25;97124.09;;;9.27;50.43
82562;BME280;72228;51.208;10.468;2024-02-23T10:21:55;97132.38;;;9.55;50.45
82562;BME280;72228;51.208;10.468;2024-02-23T10:24:22;97136.25;;;9.23;50.54
82562;BME280;72228;51.208;10.468;2024-02-23T10:26:51;97135.34;;;8.63;52.70
82562;BME280;72228;51.208;10.468;2024-02-23T10:29:16;97141.09;;;8.57;52.51
82562;BME280;72228;51.208;10.468;2024-02-23T10:31:44;97151.44;;;8.60;55.02
82562;BME280;72228;51.208;10.468;2024-02-23T10:34:13;97143.44;;;8.83;52.67
82562;BME280;72228;51.208;10.468;2024-02-23T10:36:41;97154.03;;;8.81;52.83
82562;BME280;72228;51.208;10.468;2024-02-23T10:39:16;97163.28;;;9.29;51.47
82562;BME280;72228;51.208;10.468;2024-02-23T10:41:47;97171.59;;;9.45;51.63
82562;BME280;72228;51.208;10.468;2024-02-23T10:44:15;97181.66;;;9.65;50.31
82562;BME280;72228;51.208;10.468;2024-02-23T10:46:42;97182.09;;;9.24;51.34
82562;BME280;72228;51.208;10.468;2024-02-23T10:49:08;97174.78;;;8.75;52.45
82562;BME280;72228;51.208;10.468;2024-02-23T10:51:35;97183.47;;;8.90;52.38
82562;BME280;72228;51.208;10.468;2024-02-23T10:54:03;97179.75;;;8.98;51.05
82562;BME280;72228;51.208;10.468;2024-02-23T10:56:29;97182.66;;;8.89;52.49
82562;BME280;72228;51.208;10.468;2024-02-23T10:58:56;97185.72;;;8.35;52.05
82562;BME280;72228;51.208;10.468;2024-02-23T11:01:22;97184.34;;;7.92;53.76
82562;BME280;72228;51.208;10.468;2024-02-23T11:03:51;97184.94;;;8.10;54.35
82562;BME280;72228;51.208;10.468;2024-02-23T11:06:19;97184.13;;;8.10;54.32
82562;BME280;72228;51.208;10.468;2024-02-23T11:08:49;97177.81;;;8.09;54.70
82562;BME280;72228;51.208;10.468;2024-02-23T11:11:16;97174.94;;;8.18;54.66
82562;BME280;72228;51.208;10.468;2024-02-23T11:13:45;97172.41;;;8.37;54.07
82562;BME280;72228;51.208;10.468;2024-02-23T11:16:22;97178.13;;;8.69;53.68
82562;BME280;72228;51.208;10.468;2024-02-23T11:18:48;97175.69;;;9.07;51.30
82562;BME280;72228;51.208;10.468;2024-02-23T11:21:14;97172.75;;;9.28;51.56
82562;BME280;72228;51.208;10.468;2024-02-23T11:23:49;97175.94;;;9.30;50.69
82562;BME280;72228;51.208;10.468;2024-02-23T11:26:18;97180.75;;;9.33;50.54
82562;BME280;72228;51.208;10.468;2024-02-23T11:28:48;97167.53;;;9.27;49.89
82562;BME280;72228;51.208;10.468;2024-02-23T11:31:16;97168.72;;;10.01;49.25
82562;BME280;72228;51.208;10.468;2024-02-23T11:33:52;97181.66;;;9.97;48.95
82562;BME280;72228;51.208;10.468;2024-02-23T11:36:28;97159.78;;;10.74;46.96
82562;BME280;72228;51.208;10.468;2024-02-23T11:38:57;97153.38;;;11.28;45.00
82562;BME280;72228;51.208;10.468;2024-02-23T11:41:24;97143.88;;;11.52;45.02
82562;BME280;72228;51.208;10.468;2024-02-23T11:43:51;97161.50;;;10.63;45.54
82562;BME280;72228;51.208;10.468;2024-02-23T11:46:18;97154.72;;;11.38;43.57
82562;BME280;72228;51.208;10.468;2024-02-23T11:48:44;97160.72;;;11.82;43.67
82562;BME280;72228;51.208;10.468;2024-02-23T11:51:13;97152.66;;;11.54;42.54
82562;BME280;72228;51.208;10.468;2024-02-23T11:53:40;97170.72;;;10.87;43.91
82562;BME280;72228;51.208;10.468;2024-02-23T11:56:06;97166.81;;;10.37;45.76
82562;BME280;72228;51.208;10.468;2024-02-23T11:58:35;97172.94;;;10.27;46.25
82562;BME280;72228;51.208;10.468;2024-02-23T12:01:02;97172.72;;;10.35;45.19
82562;BME280;72228;51.208;10.468;2024-02-23T12:03:31;97175.06;;;10.68;45.22
82562;BME280;72228;51.208;10.468;2024-02-23T12:05:57;97168.22;;;10.62;44.26
82562;BME280;72228;51.208;10.468;2024-02-23T12:08:27;97177.59;;;10.58;44.69
82562;BME280;72228;51.208;10.468;2024-02-23T12:10:54;97162.16;;;10.57;43.99
82562;BME280;72228;51.208;10.468;2024-02-23T12:13:21;97163.88;;;10.14;45.59
82562;BME280;72228;51.208;10.468;2024-02-23T12:15:52;97165.31;;;10.24;45.39
82562;BME280;72228;51.208;10.468;2024-02-23T12:18:22;97174.69;;;10.35;46.12
82562;BME280;72228;51.208;10.468;2024-02-23T12:26:05;97181.91;;;9.60;47.00
82562;BME280;72228;51.208;10.468;2024-02-23T12:28:31;97184.97;;;10.34;45.40
82562;BME280;72228;51.208;10.468;2024-02-23T12:31:03;97181.94;;;10.74;43.85
82562;BME280;72228;51.208;10.468;2024-02-23T12:33:37;97170.88;;;10.94;43.39
82562;BME280;72228;51.208;10.468;2024-02-23T12:36:06;97177.00;;;11.03;43.68
82562;BME280;72228;51.208;10.468;2024-02-23T12:38:33;97185.81;;;11.28;43.10
82562;BME280;72228;51.208;10.468;2024-02-23T12:41:00;97182.19;;;11.24;44.05
82562;BME280;72228;51.208;10.468;2024-02-23T12:43:26;97169.41;;;11.19;43.15
82562;BME280;72228;51.208;10.468;2024-02-23T12:45:53;97179.75;;;10.48;44.91
82562;BME280;72228;51.208;10.468;2024-02-23T12:48:22;97174.72;;;10.54;44.65
82562;BME280;72228;51.208;10.468;2024-02-23T12:50:50;97177.28;;;10.43;45.20
82562;BME280;72228;51.208;10.468;2024-02-23T12:53:37;97170.69;;;10.32;44.95
82562;BME280;72228;51.208;10.468;2024-02-23T12:56:12;97166.31;;;9.84;46.26
82562;BME280;72228;51.208;10.468;2024-02-23T12:58:40;97172.63;;;9.53;47.14
82562;BME280;72228;51.208;10.468;2024-02-23T13:01:07;97171.53;;;9.13;46.85
82562;BME280;72228;51.208;10.468;2024-02-23T13:03:34;97170.66;;;8.97;47.34